createdAt,value
2022-12-04T00:01:26.131Z,7.71
2022-12-04T00:03:54.206Z,7.03
2022-12-04T00:06:21.708Z,7.17
2022-12-04T00:08:49.049Z,8.01
2022-12-04T00:11:17.912Z,8.26
2022-12-04T00:13:45.183Z,7.64
2022-12-04T00:16:13.712Z,7.46
2022-12-04T00:18:41.427Z,7.20
2022-12-04T00:21:09.656Z,7.54
2022-12-04T00:23:37.541Z,8.30
2022-12-04T00:26:06.349Z,7.88
2022-12-04T00:28:34.121Z,6.54
2022-12-04T00:31:04.835Z,7.10
2022-12-04T00:33:32.409Z,7.84
2022-12-04T00:36:00.181Z,8.05
2022-12-04T00:38:27.488Z,8.16
2022-12-04T00:40:55.242Z,7.87
2022-12-04T00:43:23.218Z,7.61
2022-12-04T00:45:50.674Z,7.37
2022-12-04T00:48:18.191Z,8.33
2022-12-04T00:50:45.445Z,8.13
2022-12-04T00:53:12.802Z,7.64
2022-12-04T00:55:40.559Z,6.63
2022-12-04T00:58:07.987Z,6.87
2022-12-04T01:00:35.781Z,7.69
2022-12-04T01:03:03.405Z,7.58
2022-12-04T01:05:30.739Z,7.17
2022-12-04T01:07:58.014Z,7.02
2022-12-04T01:10:25.588Z,7.32
2022-12-04T01:12:55.572Z,8.23
2022-12-04T01:15:22.814Z,7.57
2022-12-04T01:17:50.297Z,7.06
2022-12-04T01:20:17.667Z,8.16
2022-12-04T01:22:44.864Z,7.80
2022-12-04T01:25:12.362Z,7.30
2022-12-04T01:27:39.652Z,6.34
2022-12-04T01:30:07.235Z,7.47
2022-12-04T01:32:34.694Z,7.13
2022-12-04T01:35:01.962Z,7.70
2022-12-04T01:37:30.534Z,7.89
2022-12-04T01:39:58.496Z,7.16
2022-12-04T01:42:25.925Z,7.49
2022-12-04T01:45:12.102Z,6.73
2022-12-04T01:47:39.577Z,7.28
2022-12-04T01:50:07.049Z,7.49
2022-12-04T01:52:34.332Z,6.62
2022-12-04T01:55:01.842Z,6.84
2022-12-04T01:57:29.856Z,6.52
2022-12-04T02:00:08.956Z,6.25
2022-12-04T02:02:37.533Z,6.68
2022-12-04T02:05:05.812Z,6.90
2022-12-04T02:07:33.104Z,7.19
2022-12-04T02:10:06.284Z,6.82
2022-12-04T02:12:36.833Z,6.32
2022-12-04T02:15:10.485Z,6.82
2022-12-04T02:17:46.875Z,5.93
2022-12-04T02:20:17.014Z,6.09
2022-12-04T02:22:47.095Z,6.51
2022-12-04T02:25:20.275Z,6.43
2022-12-04T02:28:04.051Z,6.92
2022-12-04T02:30:31.995Z,7.24
2022-12-04T02:33:03.975Z,7.38
2022-12-04T02:35:33.524Z,7.33
2022-12-04T02:38:27.249Z,7.19
2022-12-04T02:40:56.869Z,6.87
2022-12-04T02:43:34.242Z,6.12
2022-12-04T02:46:03.901Z,6.21
2022-12-04T02:48:32.063Z,6.68
2022-12-04T02:50:59.701Z,6.48
2022-12-04T02:53:28.807Z,6.06
2022-12-04T02:55:57.843Z,6.63
2022-12-04T02:58:26.386Z,5.98
2022-12-04T03:00:53.897Z,6.26
2022-12-04T03:03:22.102Z,6.00
2022-12-04T03:05:49.330Z,5.58
2022-12-04T03:08:17.773Z,5.50
2022-12-04T03:10:50.032Z,6.00
2022-12-04T03:13:19.171Z,5.47
2022-12-04T03:15:50.842Z,5.90
2022-12-04T03:18:19.577Z,5.12
2022-12-04T03:20:47.563Z,6.06
2022-12-04T03:23:15.925Z,5.77
2022-12-04T03:25:46.028Z,6.03
2022-12-04T03:28:22.759Z,5.18
2022-12-04T03:30:51.762Z,5.53
2022-12-04T03:33:20.412Z,5.51
2022-12-04T03:35:49.015Z,5.76
2022-12-04T03:38:25.688Z,6.51
2022-12-04T03:41:31.545Z,5.74
2022-12-04T03:44:06.899Z,5.55
2022-12-04T03:46:46.103Z,5.48
2022-12-04T03:49:21.611Z,6.31
2022-12-04T03:51:48.889Z,5.64
2022-12-04T03:54:17.753Z,6.03
2022-12-04T03:56:47.305Z,6.58
2022-12-04T03:59:16.205Z,5.57
2022-12-04T04:01:45.249Z,5.47
2022-12-04T04:04:14.381Z,5.57
2022-12-04T04:06:44.573Z,5.69
2022-12-04T04:09:16.075Z,6.03
2022-12-04T04:11:45.927Z,5.74
2022-12-04T04:14:37.903Z,5.89
2022-12-04T04:17:25.638Z,5.82
2022-12-04T04:20:12.906Z,5.84
2022-12-04T04:22:59.278Z,6.16
2022-12-04T04:25:26.990Z,6.00
2022-12-04T04:27:58.214Z,6.06
2022-12-04T04:30:25.565Z,6.13
2022-12-04T04:33:00.226Z,5.92
2022-12-04T04:35:49.024Z,5.48
2022-12-04T04:38:25.266Z,4.88
2022-12-04T04:40:57.200Z,4.13
2022-12-04T04:43:29.585Z,5.47
2022-12-04T04:46:08.330Z,5.28
2022-12-04T04:48:42.868Z,5.06
2022-12-04T04:51:10.398Z,5.35
2022-12-04T04:53:39.459Z,5.32
2022-12-04T04:56:06.921Z,5.78
2022-12-04T04:58:34.958Z,5.11
2022-12-04T05:01:09.004Z,5.41
2022-12-04T05:03:36.584Z,5.24
2022-12-04T05:06:04.026Z,5.92
2022-12-04T05:08:31.204Z,5.94
2022-12-04T05:10:58.732Z,6.10
2022-12-04T05:13:27.083Z,5.05
2022-12-04T05:16:04.702Z,4.80
2022-12-04T05:18:32.520Z,5.11
2022-12-04T05:20:59.708Z,5.09
2022-12-04T05:23:26.987Z,4.46
2022-12-04T05:26:01.205Z,5.92
2022-12-04T05:28:28.761Z,4.61
2022-12-04T05:30:56.779Z,4.90
2022-12-04T05:33:24.224Z,5.88
2022-12-04T05:35:58.345Z,5.99
2022-12-04T05:38:25.915Z,5.98
2022-12-04T05:40:53.189Z,5.54
2022-12-04T05:43:20.387Z,6.21
2022-12-04T05:45:47.860Z,6.26
2022-12-04T05:48:15.457Z,6.12
2022-12-04T05:50:42.720Z,6.07
2022-12-04T05:53:10.227Z,5.98
2022-12-04T05:55:37.429Z,5.48
2022-12-04T05:58:04.665Z,5.58
2022-12-04T06:00:32.177Z,5.34
2022-12-04T06:02:59.812Z,6.00
2022-12-04T06:05:27.113Z,6.79
2022-12-04T06:07:54.461Z,5.63
2022-12-04T06:10:21.972Z,5.44
2022-12-04T06:12:49.192Z,5.78
2022-12-04T06:15:16.475Z,6.19
2022-12-04T06:17:43.964Z,6.00
2022-12-04T06:20:12.088Z,6.19
2022-12-04T06:22:39.496Z,5.67
2022-12-04T06:25:07.231Z,5.02
2022-12-04T06:27:34.523Z,5.68
2022-12-04T06:30:01.805Z,6.48
2022-12-04T06:32:30.172Z,6.05
2022-12-04T06:34:57.384Z,6.66
2022-12-04T06:37:25.015Z,6.04
2022-12-04T06:39:52.806Z,6.16
2022-12-04T06:42:20.230Z,6.81
2022-12-04T06:44:47.453Z,6.66
2022-12-04T06:47:14.893Z,7.26
2022-12-04T06:49:42.359Z,7.10
2022-12-04T06:52:09.571Z,8.50
2022-12-04T06:54:37.236Z,8.90
2022-12-04T06:57:04.416Z,8.84
2022-12-04T06:59:32.668Z,9.16
2022-12-04T07:02:00.297Z,8.77
2022-12-04T07:04:27.574Z,8.02
2022-12-04T07:06:54.808Z,9.05
2022-12-04T07:09:23.199Z,7.73
2022-12-04T07:11:50.450Z,8.24
2022-12-04T07:14:17.669Z,8.44
2022-12-04T07:16:45.248Z,7.30
2022-12-04T07:19:13.711Z,8.88
2022-12-04T07:21:41.377Z,8.67
2022-12-04T07:24:09.207Z,7.64
2022-12-04T07:26:36.503Z,7.62
2022-12-04T07:29:03.774Z,7.44
2022-12-04T07:31:31.340Z,7.76
2022-12-04T07:33:58.926Z,7.53
2022-12-04T07:36:26.525Z,8.79
2022-12-04T07:38:56.983Z,8.53
2022-12-04T07:41:24.312Z,7.93
2022-12-04T07:43:51.615Z,8.67
2022-12-04T07:46:20.891Z,9.74
2022-12-04T07:48:48.128Z,9.22
2022-12-04T07:51:21.888Z,9.84
2022-12-04T07:53:50.302Z,9.64
2022-12-04T07:56:17.708Z,9.86
2022-12-04T07:58:45.166Z,10.23
2022-12-04T08:01:12.785Z,9.24
2022-12-04T08:03:46.804Z,9.52
2022-12-04T08:06:14.887Z,7.48
2022-12-04T08:08:42.403Z,8.88
2022-12-04T08:11:10.547Z,8.41
2022-12-04T08:13:37.830Z,8.24
2022-12-04T08:16:05.775Z,8.68
2022-12-04T08:18:33.206Z,9.16
2022-12-04T08:21:04.555Z,9.26
2022-12-04T08:23:32.048Z,8.84
2022-12-04T08:26:00.429Z,8.66
2022-12-04T08:28:27.736Z,8.56
2022-12-04T08:30:55.325Z,9.03
2022-12-04T08:33:22.783Z,9.70
2022-12-04T08:35:50.241Z,8.08
2022-12-04T08:38:18.069Z,9.13
2022-12-04T08:40:45.621Z,9.33
2022-12-04T08:43:13.181Z,9.55
2022-12-04T08:45:40.820Z,10.15
2022-12-04T08:48:08.093Z,9.27
2022-12-04T08:50:35.498Z,9.21
2022-12-04T08:53:03.052Z,9.41
2022-12-04T08:55:30.294Z,9.40
2022-12-04T08:57:57.578Z,8.49
2022-12-04T09:00:27.276Z,9.97
2022-12-04T09:02:54.565Z,9.42
2022-12-04T09:05:21.769Z,10.09
2022-12-04T09:07:49.479Z,10.04
2022-12-04T09:10:16.880Z,10.53
2022-12-04T09:12:44.104Z,9.94
2022-12-04T09:15:11.670Z,9.66
2022-12-04T09:17:38.933Z,9.64
2022-12-04T09:20:07.200Z,9.83
2022-12-04T09:22:57.803Z,9.51
2022-12-04T09:25:23.979Z,9.73
2022-12-04T09:27:51.626Z,10.26
2022-12-04T09:30:18.983Z,9.77
2022-12-04T09:32:46.264Z,9.99
2022-12-04T09:35:13.903Z,9.55
2022-12-04T09:37:41.355Z,9.32
2022-12-04T09:40:27.532Z,9.76
2022-12-04T09:43:18.706Z,9.57
2022-12-04T09:45:47.036Z,9.71
2022-12-04T09:48:14.626Z,9.59
2022-12-04T09:50:42.711Z,10.15
2022-12-04T09:53:17.385Z,9.21
2022-12-04T09:55:45.683Z,10.30
2022-12-04T09:58:14.670Z,10.36
2022-12-04T10:00:42.928Z,10.97
2022-12-04T10:03:13.656Z,11.03
2022-12-04T10:05:59.700Z,10.94
2022-12-04T10:08:37.378Z,11.51
2022-12-04T10:11:27.680Z,10.45
2022-12-04T10:14:04.461Z,10.30
2022-12-04T10:16:50.643Z,10.35
2022-12-04T10:19:36.808Z,11.27
2022-12-04T10:22:09.527Z,11.41
2022-12-04T10:24:50.096Z,11.16
2022-12-04T10:27:22.447Z,11.98
2022-12-04T10:29:56.264Z,12.04
2022-12-04T10:32:27.664Z,12.78
2022-12-04T10:34:56.373Z,12.11
2022-12-04T10:37:23.689Z,12.02
2022-12-04T10:39:51.091Z,12.47
2022-12-04T10:42:25.309Z,12.08
2022-12-04T10:44:52.976Z,12.56
2022-12-04T10:47:22.218Z,10.43
2022-12-04T10:49:49.529Z,10.92
2022-12-04T10:52:16.919Z,11.93
2022-12-04T10:54:52.122Z,11.36
2022-12-04T10:57:19.440Z,11.95
2022-12-04T10:59:55.431Z,12.52
2022-12-04T11:02:30.404Z,10.86
2022-12-04T11:04:59.385Z,10.88
2022-12-04T11:07:27.404Z,11.41
2022-12-04T11:10:04.640Z,11.18
2022-12-04T11:12:32.437Z,12.42
2022-12-04T11:15:00.433Z,12.54
2022-12-04T11:17:27.690Z,12.28
2022-12-04T11:20:21.683Z,12.15
2022-12-04T11:22:56.966Z,12.24
2022-12-04T11:25:28.271Z,11.53
2022-12-04T11:27:56.120Z,10.38
2022-12-04T11:30:30.091Z,11.05
2022-12-04T11:32:57.630Z,11.56
2022-12-04T11:35:25.433Z,11.13
2022-12-04T11:38:12.568Z,11.23
2022-12-04T11:40:40.399Z,10.99
2022-12-04T11:43:10.756Z,10.92
2022-12-04T11:45:38.028Z,10.71
2022-12-04T11:48:15.901Z,10.91
2022-12-04T11:50:49.657Z,10.82
2022-12-04T11:53:27.252Z,10.93
2022-12-04T11:56:14.131Z,10.63
2022-12-04T11:59:00.854Z,9.94
2022-12-04T12:01:37.142Z,9.82
2022-12-04T12:04:07.574Z,9.94
2022-12-04T12:06:38.107Z,10.42
2022-12-04T12:09:05.551Z,10.34
2022-12-04T12:11:37.700Z,10.10
2022-12-04T12:14:23.860Z,10.09
2022-12-04T12:17:06.475Z,9.65
2022-12-04T12:19:45.862Z,10.28
2022-12-04T12:22:13.436Z,10.73
2022-12-04T12:25:03.411Z,9.14
2022-12-04T12:27:30.954Z,9.37
2022-12-04T12:30:01.290Z,9.63
2022-12-04T12:32:31.660Z,10.56
2022-12-04T12:34:59.444Z,10.15
2022-12-04T12:37:28.879Z,10.49
2022-12-04T12:40:25.655Z,9.53
2022-12-04T12:42:58.703Z,9.93
2022-12-04T12:45:46.850Z,10.34
2022-12-04T12:48:22.547Z,9.65
2022-12-04T12:51:08.854Z,10.37
2022-12-04T12:53:40.095Z,10.01
2022-12-04T12:56:10.671Z,9.86
2022-12-04T12:58:44.503Z,9.71
2022-12-04T13:01:22.749Z,9.35
2022-12-04T13:04:19.782Z,9.50
2022-12-04T13:06:47.327Z,10.00
2022-12-04T13:09:20.628Z,10.55
2022-12-04T13:11:49.034Z,10.46
2022-12-04T13:14:16.612Z,9.56
2022-12-04T13:16:46.993Z,9.33
2022-12-04T13:19:18.705Z,8.90
2022-12-04T13:21:47.722Z,9.72
2022-12-04T13:24:33.707Z,9.32
2022-12-04T13:27:20.015Z,9.16
2022-12-04T13:29:56.488Z,9.18
2022-12-04T13:32:33.542Z,9.25
2022-12-04T13:35:00.737Z,9.41
2022-12-04T13:37:28.343Z,9.92
2022-12-04T13:40:05.007Z,8.75
2022-12-04T13:42:32.623Z,9.16
2022-12-04T13:45:00.628Z,8.87
2022-12-04T13:47:32.891Z,8.35
2022-12-04T13:50:18.697Z,8.45
2022-12-04T13:52:47.379Z,8.33
2022-12-04T13:55:24.246Z,9.21
2022-12-04T13:57:59.078Z,8.75
2022-12-04T14:00:29.349Z,9.30
2022-12-04T14:03:01.072Z,9.75
2022-12-04T14:05:29.876Z,9.29
2022-12-04T14:08:05.708Z,9.05
2022-12-04T14:10:35.882Z,9.16
2022-12-04T14:13:08.096Z,8.40
2022-12-04T14:15:36.178Z,8.59
2022-12-04T14:18:16.590Z,8.96
2022-12-04T14:20:44.660Z,9.44
2022-12-04T14:23:15.238Z,8.43
2022-12-04T14:25:42.663Z,8.97
2022-12-04T14:28:14.111Z,8.75
2022-12-04T14:30:41.882Z,8.93
2022-12-04T14:33:12.362Z,9.10
2022-12-04T14:35:47.971Z,9.27
2022-12-04T14:38:17.003Z,10.34
2022-12-04T14:40:45.469Z,9.85
2022-12-04T14:43:22.888Z,8.65
2022-12-04T14:45:51.411Z,8.92
2022-12-04T14:48:45.552Z,9.00
2022-12-04T14:51:22.397Z,8.71
2022-12-04T14:54:08.416Z,8.35
2022-12-04T14:56:54.830Z,9.42
2022-12-04T14:59:22.703Z,9.43
2022-12-04T15:01:50.868Z,9.40
2022-12-04T15:04:18.352Z,9.49
2022-12-04T15:06:46.594Z,9.75
2022-12-04T15:09:35.630Z,10.17
2022-12-04T15:12:31.076Z,9.64
2022-12-04T15:14:59.235Z,10.26
2022-12-04T15:17:26.539Z,10.96
2022-12-04T15:19:53.804Z,10.51
2022-12-04T15:22:22.814Z,10.67
2022-12-04T15:24:50.755Z,10.08
2022-12-04T15:27:18.844Z,10.61
2022-12-04T15:29:49.133Z,9.40
2022-12-04T15:32:16.759Z,9.92
2022-12-04T15:34:54.295Z,9.86
2022-12-04T15:37:29.343Z,10.91
2022-12-04T15:39:57.271Z,10.50
2022-12-04T15:42:29.367Z,10.14
2022-12-04T15:45:03.327Z,10.67
2022-12-04T15:47:33.172Z,10.57
2022-12-04T15:50:15.589Z,10.63
2022-12-04T15:53:01.524Z,10.72
2022-12-04T15:55:31.352Z,10.81
2022-12-04T15:58:00.926Z,10.47
2022-12-04T16:00:32.607Z,10.70
2022-12-04T16:03:00.322Z,9.89
2022-12-04T16:05:29.592Z,9.36
2022-12-04T16:07:58.004Z,9.59
2022-12-04T16:10:28.279Z,10.31
2022-12-04T16:12:56.612Z,10.25
2022-12-04T16:15:24.410Z,10.22
2022-12-04T16:17:51.973Z,10.73
2022-12-04T16:20:20.171Z,9.34
2022-12-04T16:22:47.906Z,8.72
2022-12-04T16:25:15.491Z,10.01
2022-12-04T16:27:42.893Z,10.06
2022-12-04T16:30:10.312Z,9.54
2022-12-04T16:32:38.110Z,10.54
2022-12-04T16:35:06.481Z,9.74
2022-12-04T16:37:33.921Z,10.18
2022-12-04T16:40:06.400Z,9.86
2022-12-04T16:42:34.999Z,10.75
2022-12-04T16:45:02.553Z,10.39
2022-12-04T16:47:29.959Z,10.14
2022-12-04T16:49:57.426Z,9.34
2022-12-04T16:52:25.125Z,9.48
2022-12-04T16:54:52.588Z,10.29
2022-12-04T16:57:19.932Z,10.41
2022-12-04T16:59:48.021Z,10.69
2022-12-04T17:02:16.340Z,10.68
2022-12-04T17:04:43.904Z,10.87
2022-12-04T17:07:11.406Z,10.84
2022-12-04T17:09:38.746Z,10.86
2022-12-04T17:12:06.184Z,10.83
2022-12-04T17:14:33.738Z,10.07
2022-12-04T17:17:02.256Z,10.59
2022-12-04T17:19:29.681Z,10.31
2022-12-04T17:21:58.340Z,10.27
2022-12-04T17:24:25.531Z,9.76
2022-12-04T17:26:52.861Z,10.29
2022-12-04T17:29:21.775Z,10.63
2022-12-04T17:31:49.150Z,10.64
2022-12-04T17:34:16.455Z,9.47
2022-12-04T17:36:44.089Z,10.65
2022-12-04T17:39:13.482Z,10.90
2022-12-04T17:41:40.902Z,10.82
2022-12-04T17:44:08.637Z,10.28
2022-12-04T17:46:36.180Z,9.17
2022-12-04T17:49:07.073Z,9.30
2022-12-04T17:51:35.919Z,9.47
2022-12-04T17:54:03.666Z,9.85
2022-12-04T17:56:31.118Z,10.33
2022-12-04T17:58:58.602Z,10.68
2022-12-04T18:01:27.795Z,10.97
2022-12-04T18:04:01.880Z,10.98
2022-12-04T18:06:30.342Z,9.61
2022-12-04T18:08:58.054Z,9.72
2022-12-04T18:11:26.246Z,10.06
2022-12-04T18:13:54.203Z,9.64
2022-12-04T18:16:22.212Z,9.91
2022-12-04T18:18:50.865Z,10.12
2022-12-04T18:21:18.194Z,9.48
2022-12-04T18:23:46.194Z,9.95
2022-12-04T18:26:14.437Z,9.66
2022-12-04T18:28:42.354Z,9.27
2022-12-04T18:31:10.297Z,9.56
2022-12-04T18:33:38.621Z,9.93
2022-12-04T18:36:06.356Z,10.45
2022-12-04T18:38:33.870Z,10.14
2022-12-04T18:41:02.849Z,10.03
2022-12-04T18:43:32.987Z,10.21
2022-12-04T18:46:06.858Z,10.09
2022-12-04T18:48:35.254Z,8.90
2022-12-04T18:51:13.104Z,9.91
2022-12-04T18:53:40.490Z,10.01
2022-12-04T18:56:08.019Z,9.86
2022-12-04T18:58:35.344Z,9.49
2022-12-04T19:01:06.902Z,8.96
2022-12-04T19:03:34.893Z,8.22
2022-12-04T19:06:02.721Z,9.20
2022-12-04T19:08:33.710Z,9.44
2022-12-04T19:11:10.373Z,8.45
2022-12-04T19:13:37.769Z,8.79
2022-12-04T19:16:05.672Z,9.06
2022-12-04T19:18:33.948Z,8.55
2022-12-04T19:21:01.387Z,9.28
2022-12-04T19:23:29.060Z,9.26
2022-12-04T19:25:56.661Z,9.03
2022-12-04T19:28:24.125Z,9.20
2022-12-04T19:30:51.710Z,8.94
2022-12-04T19:33:21.203Z,8.43
2022-12-04T19:35:59.002Z,8.52
2022-12-04T19:38:27.037Z,8.06
2022-12-04T19:41:09.447Z,8.06
2022-12-04T19:43:41.185Z,8.45
2022-12-04T19:46:09.309Z,8.19
2022-12-04T19:48:40.019Z,8.78
2022-12-04T19:51:15.032Z,8.98
2022-12-04T19:53:43.602Z,9.00
2022-12-04T19:56:15.486Z,8.78
2022-12-04T19:58:43.186Z,7.98
2022-12-04T20:01:11.461Z,9.09
2022-12-04T20:03:39.343Z,8.02
2022-12-04T20:06:12.074Z,8.30
2022-12-04T20:08:39.913Z,9.10
2022-12-04T20:11:08.510Z,8.08
2022-12-04T20:13:36.425Z,8.15
2022-12-04T20:16:04.582Z,8.32
2022-12-04T20:18:32.085Z,8.33
2022-12-04T20:21:00.657Z,9.00
2022-12-04T20:23:28.673Z,8.53
2022-12-04T20:25:55.992Z,7.54
2022-12-04T20:28:23.205Z,7.42
2022-12-04T20:30:50.869Z,7.74
2022-12-04T20:33:18.146Z,7.23
2022-12-04T20:35:45.385Z,7.41
2022-12-04T20:38:14.230Z,8.16
2022-12-04T20:40:41.498Z,8.24
2022-12-04T20:43:08.713Z,7.55
2022-12-04T20:45:36.401Z,8.05
2022-12-04T20:48:04.394Z,7.72
2022-12-04T20:50:32.128Z,8.51
2022-12-04T20:52:59.840Z,8.44
2022-12-04T20:55:27.083Z,8.52
2022-12-04T20:57:55.176Z,7.63
2022-12-04T21:00:23.035Z,8.43
2022-12-04T21:02:50.407Z,7.88
2022-12-04T21:05:17.740Z,8.04
2022-12-04T21:07:45.311Z,7.99
2022-12-04T21:10:12.588Z,8.85
2022-12-04T21:12:58.875Z,7.75
2022-12-04T21:15:45.340Z,7.06
2022-12-04T21:18:12.799Z,7.56
2022-12-04T21:20:40.281Z,8.67
2022-12-04T21:23:07.508Z,8.38
2022-12-04T21:25:34.802Z,7.57
2022-12-04T21:28:02.325Z,8.83
2022-12-04T21:30:29.519Z,8.74
2022-12-04T21:32:56.805Z,7.79
2022-12-04T21:35:24.347Z,7.98
2022-12-04T21:37:51.565Z,8.24
2022-12-04T21:40:18.938Z,8.19
2022-12-04T21:42:46.496Z,8.31
2022-12-04T21:45:13.746Z,8.80
2022-12-04T21:47:40.964Z,8.52
2022-12-04T21:50:08.601Z,8.09
2022-12-04T21:52:35.865Z,7.78
2022-12-04T21:55:03.055Z,9.02
2022-12-04T21:57:30.690Z,8.26
2022-12-04T21:59:58.213Z,7.69
2022-12-04T22:02:25.712Z,8.31
2022-12-04T22:04:53.289Z,8.21
2022-12-04T22:07:20.531Z,8.69
2022-12-04T22:09:47.737Z,8.21
2022-12-04T22:12:41.226Z,7.50
2022-12-04T22:15:02.490Z,7.55
2022-12-04T22:17:30.151Z,8.15
2022-12-04T22:19:57.647Z,7.72
2022-12-04T22:22:25.096Z,7.60
2022-12-04T22:24:52.548Z,8.20
2022-12-04T22:27:19.822Z,7.37
2022-12-04T22:29:50.694Z,7.53
2022-12-04T22:32:18.948Z,7.09
2022-12-04T22:34:47.859Z,7.36
2022-12-04T22:37:15.103Z,8.72
2022-12-04T22:39:42.585Z,8.15
2022-12-04T22:42:09.794Z,7.37
2022-12-04T22:44:37.526Z,8.25
2022-12-04T22:47:05.054Z,7.67
2022-12-04T22:49:32.381Z,7.70
2022-12-04T22:51:59.736Z,8.14
2022-12-04T22:54:27.272Z,8.21
2022-12-04T22:56:54.503Z,8.80
2022-12-04T22:59:21.733Z,7.62
2022-12-04T23:01:49.285Z,8.00
2022-12-04T23:04:16.591Z,8.29
2022-12-04T23:06:43.865Z,8.78
2022-12-04T23:09:13.500Z,9.57
2022-12-04T23:11:40.687Z,9.36
2022-12-04T23:14:08.551Z,9.01
2022-12-04T23:16:36.885Z,8.78
2022-12-04T23:19:04.626Z,7.82
2022-12-04T23:21:31.860Z,8.93
2022-12-04T23:23:59.446Z,8.83
2022-12-04T23:26:27.707Z,9.43
2022-12-04T23:28:55.144Z,9.33
2022-12-04T23:31:23.181Z,8.35
2022-12-04T23:33:50.544Z,9.23
2022-12-04T23:36:17.803Z,7.87
2022-12-04T23:38:45.386Z,8.92
2022-12-04T23:41:12.539Z,8.12
2022-12-04T23:43:39.903Z,9.01
2022-12-04T23:46:11.251Z,9.23
2022-12-04T23:48:39.350Z,9.39
2022-12-04T23:51:06.895Z,8.01
2022-12-04T23:53:34.537Z,9.45
2022-12-04T23:56:08.021Z,8.64
2022-12-04T23:58:35.627Z,9.41
